createdAt,value
2023-03-26T00:00:38.341Z,9.09
2023-03-26T00:03:10.741Z,9.00
2023-03-26T00:05:41.293Z,9.04
2023-03-26T00:08:12.330Z,9.05
2023-03-26T00:10:45.627Z,9.00
2023-03-26T00:13:16.118Z,8.95
2023-03-26T00:15:49.858Z,8.98
2023-03-26T00:18:20.337Z,9.11
2023-03-26T00:20:51.136Z,9.18
2023-03-26T00:23:21.693Z,9.14
2023-03-26T00:25:52.409Z,9.19
2023-03-26T00:28:23.581Z,9.21
2023-03-26T00:31:02.055Z,9.13
2023-03-26T00:33:38.693Z,9.19
2023-03-26T00:36:14.784Z,9.16
2023-03-26T00:38:47.037Z,9.18
2023-03-26T00:41:23.281Z,9.21
2023-03-26T00:43:57.030Z,9.29
2023-03-26T00:46:32.381Z,9.25
2023-03-26T00:49:04.262Z,9.22
2023-03-26T00:51:37.516Z,9.27
2023-03-26T00:54:08.413Z,9.21
2023-03-26T00:56:39.281Z,9.17
2023-03-26T00:59:09.950Z,9.21
2023-03-26T01:01:44.956Z,9.14
2023-03-26T01:04:31.097Z,9.08
2023-03-26T01:07:07.003Z,9.01
2023-03-26T01:09:43.015Z,9.00
2023-03-26T01:12:18.592Z,8.95
2023-03-26T01:14:51.688Z,8.92
2023-03-26T01:17:34.510Z,8.82
2023-03-26T01:20:15.371Z,8.84
2023-03-26T01:22:51.433Z,8.85
2023-03-26T01:25:26.491Z,8.80
2023-03-26T01:27:59.138Z,8.77
2023-03-26T01:30:41.767Z,8.85
2023-03-26T01:33:22.553Z,8.99
2023-03-26T01:36:02.089Z,8.96
2023-03-26T01:38:40.501Z,8.95
2023-03-26T01:41:18.401Z,9.00
2023-03-26T01:43:55.473Z,8.90
2023-03-26T01:46:28.834Z,8.92
2023-03-26T01:48:59.309Z,8.91
2023-03-26T01:51:32.791Z,8.92
2023-03-26T01:54:04.919Z,8.95
2023-03-26T01:56:45.601Z,9.00
2023-03-26T01:59:38.332Z,8.94
2023-03-26T02:02:16.520Z,8.96
2023-03-26T02:04:55.957Z,8.91
2023-03-26T02:07:34.710Z,8.94
2023-03-26T02:10:13.432Z,8.96
2023-03-26T02:12:47.702Z,8.96
2023-03-26T02:15:18.188Z,8.93
2023-03-26T02:17:49.579Z,8.93
2023-03-26T02:20:21.794Z,9.00
2023-03-26T02:22:52.349Z,9.06
2023-03-26T02:25:24.548Z,9.01
2023-03-26T02:27:57.839Z,9.07
2023-03-26T02:30:30.007Z,9.13
2023-03-26T02:33:02.614Z,9.09
2023-03-26T02:35:46.703Z,8.92
2023-03-26T02:38:17.291Z,8.71
2023-03-26T02:40:47.785Z,8.62
2023-03-26T02:43:21.143Z,8.61
2023-03-26T02:45:51.950Z,8.51
2023-03-26T02:48:41.671Z,8.58
2023-03-26T02:51:23.332Z,8.55
2023-03-26T02:54:07.261Z,8.58
2023-03-26T02:57:01.609Z,8.56
2023-03-26T02:59:58.029Z,8.51
2023-03-26T03:02:40.740Z,8.53
2023-03-26T03:05:31.760Z,8.54
2023-03-26T03:08:37.590Z,8.59
2023-03-26T03:11:25.076Z,8.69
2023-03-26T03:13:56.886Z,8.66
2023-03-26T03:16:34.335Z,8.60
2023-03-26T03:19:13.528Z,8.70
2023-03-26T03:21:44.916Z,8.62
2023-03-26T03:24:18.635Z,8.64
2023-03-26T03:26:55.203Z,8.66
2023-03-26T03:29:37.634Z,8.67
2023-03-26T03:32:43.401Z,8.58
2023-03-26T03:35:14.101Z,8.60
2023-03-26T03:37:47.678Z,8.63
2023-03-26T03:40:18.391Z,8.70
2023-03-26T03:42:49.312Z,8.66
2023-03-26T03:45:30.263Z,8.60
2023-03-26T03:48:23.701Z,8.56
2023-03-26T03:50:56.023Z,8.54
2023-03-26T03:53:29.670Z,8.51
2023-03-26T03:56:03.080Z,8.40
2023-03-26T03:58:58.504Z,8.35
2023-03-26T04:01:35.512Z,8.46
2023-03-26T04:04:13.619Z,8.42
2023-03-26T04:06:54.492Z,8.43
2023-03-26T04:09:26.207Z,8.45
2023-03-26T04:11:59.852Z,8.45
2023-03-26T04:14:43.462Z,8.58
2023-03-26T04:17:22.057Z,8.61
2023-03-26T04:19:56.714Z,8.68
2023-03-26T04:22:35.525Z,8.63
2023-03-26T04:25:10.289Z,8.60
2023-03-26T04:28:01.609Z,8.62
2023-03-26T04:30:53.959Z,8.66
2023-03-26T04:33:47.019Z,8.70
2023-03-26T04:36:22.652Z,8.64
2023-03-26T04:38:54.152Z,8.71
2023-03-26T04:41:32.602Z,8.70
2023-03-26T04:44:09.501Z,8.69
2023-03-26T04:46:53.697Z,8.70
2023-03-26T04:49:30.980Z,8.76
2023-03-26T04:52:04.306Z,8.83
2023-03-26T04:54:53.136Z,8.79
2023-03-26T04:57:32.882Z,8.76
2023-03-26T05:00:15.255Z,8.80
2023-03-26T05:02:50.173Z,8.77
2023-03-26T05:05:21.819Z,8.73
2023-03-26T05:07:56.359Z,8.79
2023-03-26T05:10:27.762Z,8.76
2023-03-26T05:13:03.749Z,8.79
2023-03-26T05:15:39.616Z,8.86
2023-03-26T05:18:13.454Z,8.92
2023-03-26T05:20:53.866Z,8.87
2023-03-26T05:23:27.335Z,8.77
2023-03-26T05:26:11.691Z,8.89
2023-03-26T05:28:42.162Z,8.88
2023-03-26T05:31:33.248Z,8.86
2023-03-26T05:34:05.095Z,8.81
2023-03-26T05:36:35.728Z,8.83
2023-03-26T05:39:27.760Z,8.79
2023-03-26T05:42:16.440Z,8.90
2023-03-26T05:45:02.270Z,8.88
2023-03-26T05:47:35.472Z,8.91
2023-03-26T05:50:08.329Z,8.97
2023-03-26T05:52:41.765Z,9.15
2023-03-26T05:55:33.572Z,9.23
2023-03-26T05:58:27.994Z,9.26
2023-03-26T06:01:10.127Z,9.49
2023-03-26T06:04:01.217Z,9.65
2023-03-26T06:06:35.338Z,9.72
2023-03-26T06:09:06.937Z,9.81
2023-03-26T06:11:39.949Z,9.70
2023-03-26T06:14:11.023Z,9.62
2023-03-26T06:16:46.883Z,9.57
2023-03-26T06:19:23.765Z,9.61
2023-03-26T06:22:04.093Z,9.73
2023-03-26T06:24:57.417Z,9.78
2023-03-26T06:27:49.150Z,9.75
2023-03-26T06:30:37.956Z,9.60
2023-03-26T06:33:37.808Z,9.45
2023-03-26T06:36:09.482Z,9.41
2023-03-26T06:38:39.996Z,9.53
2023-03-26T06:41:11.807Z,9.50
2023-03-26T06:43:44.858Z,9.55
2023-03-26T06:46:37.946Z,9.53
2023-03-26T06:49:38.365Z,9.59
2023-03-26T06:52:21.825Z,9.68
2023-03-26T06:55:10.615Z,9.84
2023-03-26T06:58:04.318Z,9.72
2023-03-26T07:00:50.044Z,9.86
2023-03-26T07:03:39.127Z,9.90
2023-03-26T07:06:28.386Z,9.94
2023-03-26T07:08:58.884Z,10.22
2023-03-26T07:11:47.637Z,10.45
2023-03-26T07:14:38.921Z,10.35
2023-03-26T07:17:34.794Z,10.11
2023-03-26T07:20:12.043Z,10.26
2023-03-26T07:22:44.400Z,10.32
2023-03-26T07:25:37.733Z,10.26
2023-03-26T07:28:39.369Z,10.13
2023-03-26T07:31:24.646Z,10.22
2023-03-26T07:34:22.958Z,10.26
2023-03-26T07:37:17.708Z,10.37
2023-03-26T07:40:18.500Z,10.37
2023-03-26T07:43:07.680Z,10.54
2023-03-26T07:46:14.394Z,10.50
2023-03-26T07:49:06.260Z,10.48
2023-03-26T07:51:57.849Z,10.42
2023-03-26T07:54:54.299Z,10.35
2023-03-26T07:58:04.182Z,10.34
2023-03-26T08:01:13.066Z,10.31
2023-03-26T08:04:28.013Z,10.67
2023-03-26T08:07:34.267Z,11.22
2023-03-26T08:10:25.171Z,11.52
2023-03-26T08:13:18.789Z,11.64
2023-03-26T08:15:57.889Z,11.53
2023-03-26T08:18:46.202Z,11.28
2023-03-26T08:21:22.308Z,11.43
2023-03-26T08:24:05.372Z,11.48
2023-03-26T08:26:45.864Z,11.31
2023-03-26T08:29:26.857Z,11.57
2023-03-26T08:31:59.151Z,11.59
2023-03-26T08:34:29.747Z,11.58
2023-03-26T08:37:00.175Z,12.84
2023-03-26T08:39:33.392Z,13.55
2023-03-26T08:42:43.720Z,13.68
2023-03-26T08:45:58.782Z,14.97
2023-03-26T08:49:04.498Z,15.95
2023-03-26T08:52:32.519Z,16.20
2023-03-26T08:55:39.448Z,15.80
2023-03-26T08:59:02.778Z,16.39
2023-03-26T09:02:17.802Z,17.29
2023-03-26T09:05:40.766Z,18.28
2023-03-26T09:09:22.179Z,18.11
2023-03-26T09:12:28.811Z,17.94
2023-03-26T09:15:47.137Z,20.14
2023-03-26T09:19:04.145Z,21.05
2023-03-26T09:22:08.129Z,21.04
2023-03-26T09:25:14.572Z,19.42
2023-03-26T09:28:22.272Z,17.84
2023-03-26T09:31:34.766Z,16.71
2023-03-26T09:34:31.222Z,16.38
2023-03-26T09:37:21.515Z,17.06
2023-03-26T09:40:17.676Z,17.75
2023-03-26T09:42:58.626Z,16.80
2023-03-26T09:45:54.983Z,18.47
2023-03-26T09:48:54.302Z,19.96
2023-03-26T09:51:42.080Z,20.36
2023-03-26T09:55:09.272Z,21.04
2023-03-26T09:58:18.668Z,21.95
2023-03-26T10:01:01.034Z,21.23
2023-03-26T10:03:44.506Z,20.79
2023-03-26T10:06:33.762Z,20.92
2023-03-26T10:09:35.558Z,20.44
2023-03-26T10:12:20.702Z,20.08
2023-03-26T10:15:07.127Z,18.62
2023-03-26T10:17:53.079Z,17.88
2023-03-26T10:20:38.078Z,17.54
2023-03-26T10:23:30.168Z,18.12
2023-03-26T10:26:36.764Z,17.81
2023-03-26T10:29:23.709Z,17.82
2023-03-26T10:32:16.965Z,17.77
2023-03-26T10:35:22.578Z,17.49
2023-03-26T10:38:07.844Z,18.04
2023-03-26T10:40:48.145Z,18.09
2023-03-26T10:43:42.188Z,18.02
2023-03-26T10:46:39.119Z,18.10
2023-03-26T10:49:39.967Z,17.03
2023-03-26T10:52:12.944Z,16.35
2023-03-26T10:54:56.216Z,16.21
2023-03-26T10:57:45.650Z,16.42
2023-03-26T11:00:25.607Z,16.97
2023-03-26T11:03:19.460Z,18.68
2023-03-26T11:06:01.989Z,19.36
2023-03-26T11:08:41.918Z,19.69
2023-03-26T11:11:23.989Z,19.48
2023-03-26T11:14:04.166Z,19.98
2023-03-26T11:16:52.068Z,20.80
2023-03-26T11:19:32.142Z,20.39
2023-03-26T11:22:18.906Z,19.39
2023-03-26T11:25:08.945Z,19.02
2023-03-26T11:27:55.504Z,18.33
2023-03-26T11:30:36.317Z,17.36
2023-03-26T11:33:07.895Z,17.36
2023-03-26T11:35:41.993Z,17.07
2023-03-26T11:38:26.700Z,16.46
2023-03-26T11:41:00.031Z,16.47
2023-03-26T11:43:57.016Z,16.04
2023-03-26T11:46:31.368Z,15.82
2023-03-26T11:49:07.040Z,15.48
2023-03-26T11:51:41.285Z,14.91
2023-03-26T11:54:18.890Z,14.54
2023-03-26T11:57:05.547Z,14.67
2023-03-26T11:59:53.019Z,14.40
2023-03-26T12:02:34.381Z,14.56
2023-03-26T12:05:21.606Z,14.53
2023-03-26T12:07:58.891Z,14.02
2023-03-26T12:10:39.065Z,13.98
2023-03-26T12:13:37.481Z,14.18
2023-03-26T12:16:15.941Z,14.16
2023-03-26T12:18:48.669Z,13.76
2023-03-26T12:21:23.107Z,13.77
2023-03-26T12:24:02.281Z,13.70
2023-03-26T12:26:45.090Z,13.74
2023-03-26T12:29:18.204Z,13.91
2023-03-26T12:31:56.174Z,13.76
2023-03-26T12:34:35.322Z,13.50
2023-03-26T12:37:08.179Z,13.55
2023-03-26T12:40:06.755Z,13.43
2023-03-26T12:44:46.700Z,13.40
2023-03-26T12:45:35.549Z,13.16
2023-03-26T12:48:09.290Z,12.81
2023-03-26T12:51:00.157Z,12.32
2023-03-26T12:53:53.520Z,11.89
2023-03-26T12:56:37.068Z,11.73
2023-03-26T12:59:31.291Z,11.45
2023-03-26T13:02:20.403Z,11.31
2023-03-26T13:05:07.191Z,11.34
2023-03-26T13:08:00.947Z,11.08
2023-03-26T13:10:54.987Z,11.08
2023-03-26T13:14:26.072Z,10.91
2023-03-26T13:17:07.560Z,10.73
2023-03-26T13:19:45.646Z,10.50
2023-03-26T13:22:30.149Z,10.39
2023-03-26T13:25:11.574Z,10.46
2023-03-26T13:27:52.920Z,10.24
2023-03-26T13:30:34.112Z,10.40
2023-03-26T13:33:28.913Z,10.29
2023-03-26T13:36:22.399Z,10.35
2023-03-26T13:39:08.276Z,10.60
2023-03-26T13:42:09.229Z,10.54
2023-03-26T13:45:04.414Z,10.43
2023-03-26T13:47:41.571Z,10.36
2023-03-26T13:50:25.749Z,10.49
2023-03-26T13:53:02.107Z,10.20
2023-03-26T13:55:37.641Z,9.99
2023-03-26T13:58:16.287Z,9.83
2023-03-26T14:00:59.027Z,9.72
2023-03-26T14:03:39.714Z,9.54
2023-03-26T14:06:24.214Z,9.48
2023-03-26T14:09:02.839Z,9.42
2023-03-26T14:11:46.565Z,9.39
2023-03-26T14:14:22.613Z,9.65
2023-03-26T14:16:59.445Z,9.86
2023-03-26T14:19:57.930Z,9.94
2023-03-26T14:22:44.875Z,9.91
2023-03-26T14:25:29.129Z,9.89
2023-03-26T14:28:22.651Z,9.95
2023-03-26T14:31:20.807Z,10.04
2023-03-26T14:34:16.438Z,10.33
2023-03-26T14:37:27.004Z,10.45
2023-03-26T14:40:47.626Z,10.58
2023-03-26T14:43:50.651Z,10.66
2023-03-26T14:46:39.581Z,10.71
2023-03-26T14:49:46.722Z,10.86
2023-03-26T14:52:22.210Z,10.87
2023-03-26T14:54:57.717Z,11.00
2023-03-26T14:58:06.573Z,11.01
2023-03-26T15:01:20.797Z,11.07
2023-03-26T15:04:44.541Z,11.15
2023-03-26T15:07:41.251Z,11.14
2023-03-26T15:10:26.074Z,10.96
2023-03-26T15:13:39.559Z,10.80
2023-03-26T15:16:48.830Z,10.94
2023-03-26T15:20:12.252Z,11.07
2023-03-26T15:23:34.658Z,11.21
2023-03-26T15:27:05.398Z,11.09
2023-03-26T15:30:40.812Z,11.25
2023-03-26T15:34:13.659Z,11.23
2023-03-26T15:37:27.826Z,11.26
2023-03-26T15:40:40.617Z,11.22
2023-03-26T15:43:16.814Z,11.24
2023-03-26T15:45:50.570Z,11.22
2023-03-26T15:48:52.932Z,11.27
2023-03-26T15:51:47.295Z,11.32
2023-03-26T15:54:29.601Z,11.33
2023-03-26T15:57:17.045Z,11.35
2023-03-26T16:00:15.444Z,11.34
2023-03-26T16:02:58.412Z,11.31
2023-03-26T16:06:02.413Z,11.30
2023-03-26T16:08:47.301Z,11.30
2023-03-26T16:11:55.696Z,11.13
2023-03-26T16:14:44.763Z,10.88
2023-03-26T16:17:20.868Z,10.92
2023-03-26T16:19:55.538Z,10.90
2023-03-26T16:22:49.044Z,10.89
2023-03-26T16:25:30.950Z,10.87
2023-03-26T16:28:32.630Z,10.97
2023-03-26T16:31:37.571Z,10.97
2023-03-26T16:34:29.344Z,10.92
2023-03-26T16:37:02.540Z,10.80
2023-03-26T16:39:45.177Z,10.82
2023-03-26T16:42:43.381Z,10.82
2023-03-26T16:45:30.488Z,10.82
2023-03-26T16:48:13.226Z,10.82
2023-03-26T16:50:53.589Z,10.78
2023-03-26T16:53:41.910Z,10.82
2023-03-26T16:56:29.492Z,10.78
2023-03-26T16:59:05.677Z,10.81
2023-03-26T17:01:50.029Z,10.81
2023-03-26T17:04:24.913Z,10.82
2023-03-26T17:07:14.038Z,10.85
2023-03-26T17:09:59.262Z,10.86
2023-03-26T17:12:40.662Z,10.88
2023-03-26T17:15:27.473Z,10.87
2023-03-26T17:18:19.124Z,10.88
2023-03-26T17:21:02.271Z,10.90
2023-03-26T17:23:57.552Z,10.90
2023-03-26T17:26:43.096Z,10.84
2023-03-26T17:29:28.751Z,10.82
2023-03-26T17:32:08.839Z,10.77
2023-03-26T17:35:07.719Z,10.75
2023-03-26T17:37:49.806Z,10.66
2023-03-26T17:40:52.401Z,10.67
2023-03-26T17:43:43.247Z,10.63
2023-03-26T17:46:29.997Z,10.58
2023-03-26T17:49:10.143Z,10.56
2023-03-26T17:51:51.857Z,10.60
2023-03-26T17:54:30.500Z,10.52
2023-03-26T17:57:07.206Z,10.45
2023-03-26T17:59:39.383Z,10.39
2023-03-26T18:02:18.648Z,10.34
2023-03-26T18:04:53.937Z,10.31
2023-03-26T18:08:09.107Z,10.13
2023-03-26T18:11:08.041Z,10.13
2023-03-26T18:14:32.858Z,10.18
2023-03-26T18:17:04.728Z,10.19
2023-03-26T18:19:50.940Z,10.17
2023-03-26T18:22:25.886Z,10.07
2023-03-26T18:25:02.691Z,10.15
2023-03-26T18:27:40.420Z,10.20
2023-03-26T18:30:22.943Z,10.21
2023-03-26T18:33:04.188Z,10.21
2023-03-26T18:35:44.699Z,10.25
2023-03-26T18:38:35.846Z,10.22
2023-03-26T18:41:27.488Z,10.23
2023-03-26T18:43:58.812Z,10.23
2023-03-26T18:46:29.233Z,10.23
2023-03-26T18:49:00.191Z,10.19
2023-03-26T18:51:31.845Z,10.14
2023-03-26T18:54:06.023Z,10.16
2023-03-26T18:56:42.040Z,10.17
2023-03-26T18:59:29.159Z,10.20
2023-03-26T19:02:01.699Z,10.22
2023-03-26T19:04:35.177Z,10.23
2023-03-26T19:07:06.579Z,10.24
2023-03-26T19:09:37.155Z,10.26
2023-03-26T19:12:19.432Z,10.29
2023-03-26T19:15:01.324Z,10.27
2023-03-26T19:17:37.287Z,10.25
2023-03-26T19:20:13.141Z,10.26
2023-03-26T19:22:44.903Z,10.24
2023-03-26T19:25:24.959Z,10.28
2023-03-26T19:27:58.319Z,10.21
2023-03-26T19:30:34.723Z,10.17
2023-03-26T19:33:13.091Z,10.17
2023-03-26T19:35:46.318Z,9.91
2023-03-26T19:38:26.285Z,9.77
2023-03-26T19:40:59.418Z,9.74
2023-03-26T19:43:32.808Z,9.58
2023-03-26T19:46:03.337Z,9.61
2023-03-26T19:48:45.507Z,9.58
2023-03-26T19:51:24.208Z,9.50
2023-03-26T19:54:01.113Z,9.45
2023-03-26T19:56:32.038Z,9.47
2023-03-26T19:59:05.452Z,9.49
2023-03-26T20:01:36.723Z,9.48
2023-03-26T20:04:09.479Z,9.27
2023-03-26T20:06:43.898Z,9.26
2023-03-26T20:09:16.519Z,9.17
2023-03-26T20:11:47.243Z,9.10
2023-03-26T20:14:26.458Z,9.09
2023-03-26T20:16:57.168Z,9.13
2023-03-26T20:19:28.470Z,9.14
2023-03-26T20:21:59.258Z,9.27
2023-03-26T20:24:35.475Z,9.25
2023-03-26T20:27:05.984Z,9.36
2023-03-26T20:29:40.282Z,9.50
2023-03-26T20:32:26.393Z,9.54
2023-03-26T20:34:57.852Z,9.53
2023-03-26T20:37:28.379Z,9.51
2023-03-26T20:39:59.362Z,9.53
2023-03-26T20:42:29.883Z,9.58
2023-03-26T20:45:03.082Z,9.67
2023-03-26T20:47:34.503Z,9.69
2023-03-26T20:50:05.013Z,9.69
2023-03-26T20:52:35.545Z,9.75
2023-03-26T20:55:06.530Z,9.75
2023-03-26T20:57:37.381Z,9.74
2023-03-26T21:00:18.652Z,9.73
2023-03-26T21:02:49.777Z,9.73
2023-03-26T21:05:24.593Z,9.72
2023-03-26T21:07:56.790Z,9.75
2023-03-26T21:10:29.872Z,9.79
2023-03-26T21:13:05.628Z,9.79
2023-03-26T21:15:40.103Z,9.79
2023-03-26T21:18:12.285Z,9.79
2023-03-26T21:20:45.364Z,9.77
2023-03-26T21:23:25.829Z,9.78
2023-03-26T21:26:06.491Z,9.73
2023-03-26T21:28:42.649Z,9.68
2023-03-26T21:31:21.800Z,9.67
2023-03-26T21:33:55.413Z,9.77
2023-03-26T21:36:27.406Z,9.81
2023-03-26T21:38:58.738Z,9.83
2023-03-26T21:41:41.433Z,9.85
2023-03-26T21:44:12.006Z,9.88
2023-03-26T21:46:49.884Z,9.91
2023-03-26T21:49:21.568Z,9.89
2023-03-26T21:51:52.861Z,9.90
2023-03-26T21:54:29.837Z,9.94
2023-03-26T21:57:20.333Z,9.93
2023-03-26T22:00:03.594Z,9.92
2023-03-26T22:02:57.322Z,9.88
2023-03-26T22:05:36.576Z,9.88
2023-03-26T22:08:10.135Z,9.86
2023-03-26T22:10:40.644Z,9.87
2023-03-26T22:13:11.533Z,9.84
2023-03-26T22:15:41.996Z,9.81
2023-03-26T22:18:15.537Z,9.72
2023-03-26T22:20:46.774Z,9.68
2023-03-26T22:23:18.328Z,9.57
2023-03-26T22:25:49.763Z,9.54
2023-03-26T22:28:20.368Z,9.52
2023-03-26T22:30:51.172Z,9.58
2023-03-26T22:33:24.416Z,9.64
2023-03-26T22:35:55.721Z,9.60
2023-03-26T22:38:26.194Z,9.56
2023-03-26T22:41:00.116Z,9.56
2023-03-26T22:43:30.717Z,9.56
2023-03-26T22:46:01.335Z,9.59
2023-03-26T22:48:35.071Z,9.57
2023-03-26T22:51:09.289Z,9.55
2023-03-26T22:53:39.962Z,9.51
2023-03-26T22:56:13.790Z,9.49
2023-03-26T22:58:44.860Z,9.47
2023-03-26T23:01:17.872Z,9.44
2023-03-26T23:03:50.942Z,9.41
2023-03-26T23:06:21.830Z,9.38
2023-03-26T23:08:52.304Z,9.38
2023-03-26T23:11:24.399Z,9.37
2023-03-26T23:13:54.947Z,9.37
2023-03-26T23:16:26.747Z,9.37
2023-03-26T23:18:59.823Z,9.38
2023-03-26T23:21:30.270Z,9.35
2023-03-26T23:24:01.465Z,9.34
2023-03-26T23:26:43.912Z,9.32
2023-03-26T23:29:18.489Z,9.30
2023-03-26T23:31:49.036Z,9.28
2023-03-26T23:34:23.385Z,9.32
2023-03-26T23:36:54.025Z,9.33
2023-03-26T23:39:25.697Z,9.31
2023-03-26T23:41:56.152Z,9.31
2023-03-26T23:44:29.534Z,9.35
2023-03-26T23:47:00.766Z,9.33
2023-03-26T23:49:33.727Z,9.34
2023-03-26T23:52:04.520Z,9.34
2023-03-26T23:54:35.990Z,9.36
2023-03-26T23:57:07.995Z,9.31
2023-03-26T23:59:38.476Z,9.29
